Terminal Aerodrome Forecast
Issued by NWS

Home | Current Version | Previous Version | Graphics & Text | Print | Product List | Glossary On
Versions: 1 2 3 4 5 6 7 8 9 10 11 12 13 14 15 16 17 18
000
FTUS43 KOAX 170900 AAA
TAFCDR
TAF AMD
KCDR 170923Z 1709/1806 08005KT P6SM BKN060
     FM171100 15005KT 3SM BR OVC015
     FM171300 20010KT P6SM BKN040
     FM171900 19011G23KT P6SM BKN040
     FM180200 17010G18KT P6SM SCT040=

USA.gov is the U.S. government's official web portal to all federal, state and local government web resources and services.